createdAt,value
2018-12-19T00:00:17.302Z,2.12
2018-12-19T00:01:17.287Z,2.10
2018-12-19T00:02:17.276Z,2.09
2018-12-19T00:03:17.267Z,2.06
2018-12-19T00:04:17.254Z,2.16
2018-12-19T00:05:17.266Z,2.12
2018-12-19T00:06:17.230Z,2.10
2018-12-19T00:07:17.229Z,2.06
2018-12-19T00:08:17.207Z,2.03
2018-12-19T00:09:17.196Z,2.06
2018-12-19T00:10:17.212Z,2.05
2018-12-19T00:11:17.177Z,1.95
2018-12-19T00:12:17.162Z,1.99
2018-12-19T00:13:17.150Z,1.95
2018-12-19T00:14:17.141Z,1.93
2018-12-19T00:15:17.147Z,1.86
2018-12-19T00:16:17.119Z,1.90
2018-12-19T00:17:17.106Z,1.93
2018-12-19T00:18:17.096Z,1.87
2018-12-19T00:19:17.081Z,1.90
2018-12-19T00:20:17.132Z,1.88
2018-12-19T00:21:17.060Z,1.91
2018-12-19T00:22:17.048Z,1.91
2018-12-19T00:23:17.038Z,1.88
2018-12-19T00:24:17.027Z,2.02
2018-12-19T00:25:17.016Z,1.93
2018-12-19T00:26:17.021Z,1.90
2018-12-19T00:27:16.995Z,1.90
2018-12-19T00:28:16.980Z,1.90
2018-12-19T00:29:16.971Z,1.83
2018-12-19T00:30:16.958Z,1.86
2018-12-19T00:31:16.975Z,1.84
2018-12-19T00:32:16.932Z,1.88
2018-12-19T00:33:16.928Z,1.86
2018-12-19T00:34:16.911Z,1.87
2018-12-19T00:35:16.902Z,1.98
2018-12-19T00:36:16.927Z,1.98
2018-12-19T00:37:16.886Z,2.05
2018-12-19T00:38:16.873Z,1.98
2018-12-19T00:39:16.871Z,2.02
2018-12-19T00:40:16.853Z,2.06
2018-12-19T00:41:16.838Z,2.05
2018-12-19T00:42:16.842Z,1.99
2018-12-19T00:43:16.815Z,2.00
2018-12-19T00:44:16.819Z,2.06
2018-12-19T00:45:16.790Z,2.02
2018-12-19T00:46:16.782Z,2.07
2018-12-19T00:47:16.804Z,2.03
2018-12-19T00:48:16.760Z,2.03
2018-12-19T00:49:16.744Z,2.10
2018-12-19T00:50:16.733Z,2.16
2018-12-19T00:51:16.721Z,2.12
2018-12-19T00:52:16.709Z,2.07
2018-12-19T00:53:16.714Z,2.07
2018-12-19T00:54:16.686Z,2.09
2018-12-19T00:55:16.675Z,2.09
2018-12-19T00:56:16.665Z,2.17
2018-12-19T00:57:16.652Z,2.17
2018-12-19T00:58:16.665Z,2.21
2018-12-19T00:59:16.629Z,2.20
2018-12-19T01:00:16.618Z,2.16
2018-12-19T01:01:16.608Z,2.23
2018-12-19T01:02:16.595Z,2.24
2018-12-19T01:03:16.615Z,2.17
2018-12-19T01:04:16.577Z,2.20
2018-12-19T01:05:16.562Z,2.12
2018-12-19T01:06:16.549Z,2.09
2018-12-19T01:07:16.540Z,2.16
2018-12-19T01:08:16.528Z,2.07
2018-12-19T01:09:16.535Z,2.02
2018-12-19T01:10:16.507Z,2.02
2018-12-19T01:11:16.493Z,2.03
2018-12-19T01:12:16.481Z,1.98
2018-12-19T01:13:16.471Z,1.91
2018-12-19T01:14:16.477Z,2.03
2018-12-19T01:15:16.448Z,2.00
2018-12-19T01:16:16.436Z,1.87
2018-12-19T01:17:16.432Z,1.90
2018-12-19T01:18:16.413Z,1.99
2018-12-19T01:19:16.434Z,1.90
2018-12-19T01:20:16.391Z,1.93
2018-12-19T01:21:16.382Z,1.93
2018-12-19T01:22:16.366Z,1.90
2018-12-19T01:23:16.360Z,1.90
2018-12-19T01:24:16.352Z,1.91
2018-12-19T01:25:16.353Z,1.91
2018-12-19T01:26:16.325Z,1.83
2018-12-19T01:27:16.312Z,1.83
2018-12-19T01:28:16.301Z,1.88
2018-12-19T01:29:16.290Z,1.84
2018-12-19T01:30:16.300Z,1.86
2018-12-19T01:31:16.266Z,1.91
2018-12-19T01:32:16.254Z,1.86
2018-12-19T01:33:16.243Z,1.79
2018-12-19T01:34:16.235Z,1.83
2018-12-19T01:35:16.239Z,1.86
2018-12-19T01:36:16.210Z,1.83
2018-12-19T01:37:16.203Z,1.77
2018-12-19T01:38:16.187Z,1.77
2018-12-19T01:39:22.332Z,1.84
2018-12-19T01:40:17.184Z,1.88
2018-12-19T01:41:16.153Z,1.86
2018-12-19T01:42:16.142Z,1.80
2018-12-19T01:43:16.132Z,1.83
2018-12-19T01:44:16.122Z,1.81
2018-12-19T01:45:16.126Z,1.86
2018-12-19T01:46:16.097Z,1.83
2018-12-19T01:47:16.086Z,1.86
2018-12-19T01:48:16.074Z,1.80
2018-12-19T01:49:16.060Z,1.81
2018-12-19T01:50:16.081Z,1.77
2018-12-19T01:51:16.039Z,1.77
2018-12-19T01:52:16.029Z,1.83
2018-12-19T01:53:16.021Z,1.83
2018-12-19T01:54:16.004Z,1.84
2018-12-19T01:55:15.999Z,1.81
2018-12-19T01:56:16.001Z,1.80
2018-12-19T01:57:15.971Z,1.81
2018-12-19T01:58:15.963Z,1.76
2018-12-19T01:59:15.948Z,1.81
2018-12-19T02:00:15.966Z,1.83
2018-12-19T02:01:15.955Z,1.80
2018-12-19T02:02:15.917Z,1.79
2018-12-19T02:03:15.906Z,1.80
2018-12-19T02:04:15.893Z,1.83
2018-12-19T02:05:15.881Z,1.83
2018-12-19T02:06:15.904Z,1.73
2018-12-19T02:07:15.911Z,1.83
2018-12-19T02:08:15.850Z,1.80
2018-12-19T02:09:15.835Z,1.70
2018-12-19T02:10:15.834Z,1.81
2018-12-19T02:11:15.811Z,1.77
2018-12-19T02:12:15.822Z,1.80
2018-12-19T02:13:15.796Z,1.73
2018-12-19T02:14:15.778Z,1.76
2018-12-19T02:15:15.767Z,1.66
2018-12-19T02:16:15.756Z,1.68
2018-12-19T02:17:15.773Z,1.65
2018-12-19T02:18:15.734Z,1.60
2018-12-19T02:19:15.724Z,1.52
2018-12-19T02:20:15.715Z,1.68
2018-12-19T02:21:15.698Z,1.63
2018-12-19T02:22:15.688Z,1.66
2018-12-19T02:23:15.700Z,1.60
2018-12-19T02:24:15.667Z,1.65
2018-12-19T02:25:15.655Z,1.65
2018-12-19T02:26:15.644Z,1.63
2018-12-19T02:27:15.635Z,1.63
2018-12-19T02:28:15.654Z,1.66
2018-12-19T02:29:15.612Z,1.69
2018-12-19T02:30:15.600Z,1.66
2018-12-19T02:31:15.588Z,1.65
2018-12-19T02:32:15.575Z,1.65
2018-12-19T02:33:15.565Z,1.72
2018-12-19T02:34:15.572Z,1.72
2018-12-19T02:35:15.540Z,1.77
2018-12-19T02:36:15.531Z,1.65
2018-12-19T02:37:15.519Z,1.66
2018-12-19T02:38:15.511Z,1.66
2018-12-19T02:39:15.530Z,1.68
2018-12-19T02:40:15.487Z,1.80
2018-12-19T02:41:15.479Z,1.72
2018-12-19T02:42:15.462Z,1.66
2018-12-19T02:43:15.453Z,1.72
2018-12-19T02:44:15.445Z,1.65
2018-12-19T02:45:15.445Z,1.66
2018-12-19T02:46:15.417Z,1.73
2018-12-19T02:47:15.406Z,1.63
2018-12-19T02:48:15.402Z,1.63
2018-12-19T02:49:15.386Z,1.68
2018-12-19T02:50:15.404Z,1.66
2018-12-19T02:51:15.363Z,1.66
2018-12-19T02:52:15.351Z,1.68
2018-12-19T02:53:15.339Z,1.77
2018-12-19T02:54:15.327Z,1.63
2018-12-19T04:06:47.337Z,1.63
2018-12-19T04:07:31.137Z,1.60
2018-12-19T04:08:31.124Z,1.54
2018-12-19T04:09:31.113Z,1.52
2018-12-19T04:10:31.101Z,1.54
2018-12-19T04:11:31.106Z,1.55
2018-12-19T04:12:31.081Z,1.50
2018-12-19T04:13:31.069Z,1.58
2018-12-19T04:14:31.060Z,1.58
2018-12-19T04:15:31.044Z,1.54
2018-12-19T04:16:31.066Z,1.58
2018-12-19T04:17:31.024Z,1.66
2018-12-19T04:18:31.009Z,1.66
2018-12-19T04:19:31.000Z,1.59
2018-12-19T04:20:30.987Z,1.60
2018-12-19T04:21:30.982Z,1.68
2018-12-19T04:22:30.982Z,1.66
2018-12-19T04:23:30.955Z,1.66
2018-12-19T04:24:30.944Z,1.69
2018-12-19T04:25:30.932Z,1.69
2018-12-19T04:26:30.920Z,1.66
2018-12-19T04:27:30.938Z,1.60
2018-12-19T04:28:30.900Z,1.62
2018-12-19T04:29:30.885Z,1.63
2018-12-19T04:30:30.877Z,1.65
2018-12-19T04:31:30.864Z,1.68
2018-12-19T04:32:30.853Z,1.66
2018-12-19T04:33:30.859Z,1.66
2018-12-19T04:34:30.829Z,1.66
2018-12-19T04:35:30.822Z,1.65
2018-12-19T04:36:30.810Z,1.63
2018-12-19T04:37:30.795Z,1.63
2018-12-19T04:38:30.817Z,1.66
2018-12-19T04:39:30.774Z,1.70
2018-12-19T04:40:30.762Z,1.77
2018-12-19T04:41:30.751Z,1.76
2018-12-19T04:42:30.739Z,1.69
2018-12-19T04:43:30.729Z,1.70
2018-12-19T04:44:30.737Z,1.70
2018-12-19T04:45:30.706Z,1.69
2018-12-19T04:46:30.700Z,1.73
2018-12-19T04:47:30.682Z,1.76
2018-12-19T04:48:30.690Z,1.81
2018-12-19T04:49:30.659Z,1.81
2018-12-19T04:50:30.650Z,1.79
2018-12-19T04:51:30.638Z,1.80
2018-12-19T04:52:30.628Z,1.72
2018-12-19T04:53:30.631Z,1.77
2018-12-19T04:54:30.604Z,1.77
2018-12-19T04:55:30.596Z,1.66
2018-12-19T04:56:30.586Z,1.76
2018-12-19T04:57:30.568Z,1.70
2018-12-19T04:58:30.579Z,1.81
2018-12-19T04:59:30.548Z,1.73
2018-12-19T05:00:30.534Z,1.72
2018-12-19T05:01:30.525Z,1.76
2018-12-19T05:02:30.514Z,1.72
2018-12-19T05:03:30.519Z,1.76
2018-12-19T05:04:30.491Z,1.66
2018-12-19T05:05:30.479Z,1.66
2018-12-19T05:06:30.469Z,1.80
2018-12-19T05:07:30.459Z,1.73
2018-12-19T05:08:30.464Z,1.76
2018-12-19T05:09:30.434Z,1.77
2018-12-19T05:10:30.425Z,1.76
2018-12-19T05:11:30.411Z,1.83
2018-12-19T05:12:30.401Z,1.77
2018-12-19T05:13:30.405Z,1.83
2018-12-19T05:14:30.379Z,1.83
2018-12-19T05:15:30.368Z,1.79
2018-12-19T05:16:30.358Z,1.79
2018-12-19T05:17:30.349Z,1.79
2018-12-19T05:18:30.357Z,1.79
2018-12-19T05:19:30.321Z,1.77
2018-12-19T05:20:30.305Z,1.79
2018-12-19T05:21:30.310Z,1.72
2018-12-19T05:22:30.289Z,1.72
2018-12-19T05:23:30.291Z,1.66
2018-12-19T05:24:30.266Z,1.69
2018-12-19T05:25:30.251Z,1.69
2018-12-19T05:26:30.240Z,1.69
2018-12-19T05:27:30.229Z,1.65
2018-12-19T05:28:30.238Z,1.77
2018-12-19T05:29:30.209Z,1.73
2018-12-19T05:30:30.196Z,1.66
2018-12-19T05:31:30.185Z,1.79
2018-12-19T05:32:30.173Z,1.69
2018-12-19T05:33:30.180Z,1.69
2018-12-19T05:34:30.151Z,1.77
2018-12-19T05:35:30.137Z,1.73
2018-12-19T05:36:30.129Z,1.73
2018-12-19T05:37:30.116Z,1.83
2018-12-19T05:38:30.122Z,1.73
2018-12-19T05:39:30.095Z,1.79
2018-12-19T05:40:30.082Z,1.80
2018-12-19T05:41:30.072Z,1.81
2018-12-19T05:42:30.060Z,1.79
2018-12-19T05:43:30.066Z,1.86
2018-12-19T05:44:30.039Z,1.72
2018-12-19T05:45:30.027Z,1.77
2018-12-19T05:46:30.017Z,1.77
2018-12-19T05:47:30.003Z,1.79
2018-12-19T05:48:30.012Z,1.73
2018-12-19T05:49:29.980Z,1.65
2018-12-19T05:50:29.969Z,1.65
2018-12-19T05:51:29.961Z,1.65
2018-12-19T05:52:29.947Z,1.65
2018-12-19T05:53:29.956Z,1.69
2018-12-19T05:54:29.923Z,1.62
2018-12-19T05:55:29.915Z,1.65
2018-12-19T05:56:29.901Z,1.65
2018-12-19T05:57:29.888Z,1.65
2018-12-19T05:58:29.897Z,1.63
2018-12-19T05:59:29.866Z,1.54
2018-12-19T06:00:29.859Z,1.58
2018-12-19T06:01:29.844Z,1.63
2018-12-19T06:02:29.837Z,1.60
2018-12-19T06:03:29.837Z,1.59
2018-12-19T06:04:29.811Z,1.62
2018-12-19T06:05:29.801Z,1.62
2018-12-19T06:06:29.895Z,1.58
2018-12-19T06:07:29.779Z,1.58
2018-12-19T06:08:29.785Z,1.60
2018-12-19T06:09:29.755Z,1.50
2018-12-19T06:10:29.744Z,1.59
2018-12-19T06:11:29.730Z,1.42
2018-12-19T06:12:29.721Z,1.48
2018-12-19T06:13:29.724Z,1.47
2018-12-19T06:14:29.696Z,1.44
2018-12-19T06:15:29.685Z,1.50
2018-12-19T06:16:29.674Z,1.47
2018-12-19T06:17:29.666Z,1.51
2018-12-19T06:18:29.670Z,1.50
2018-12-19T06:19:29.640Z,1.63
2018-12-19T06:20:29.634Z,1.58
2018-12-19T06:21:29.619Z,1.63
2018-12-19T06:22:29.614Z,1.59
2018-12-19T06:23:29.623Z,1.73
2018-12-19T06:24:29.584Z,1.79
2018-12-19T06:25:29.619Z,1.81
2018-12-19T06:26:29.559Z,1.79
2018-12-19T06:27:29.548Z,1.80
2018-12-19T06:28:29.538Z,1.83
2018-12-19T06:29:29.545Z,1.86
2018-12-19T06:30:29.516Z,1.93
2018-12-19T06:31:29.505Z,1.88
2018-12-19T06:32:29.495Z,1.95
2018-12-19T06:33:29.503Z,1.93
2018-12-19T06:34:29.469Z,1.90
2018-12-19T06:35:29.459Z,2.05
2018-12-19T06:36:29.449Z,1.90
2018-12-19T06:37:29.437Z,1.95
2018-12-19T06:38:29.440Z,1.91
2018-12-19T06:39:29.415Z,1.90
2018-12-19T06:40:32.633Z,1.90
2018-12-19T06:41:29.389Z,1.87
2018-12-19T06:42:29.379Z,1.87
2018-12-19T06:43:29.384Z,1.87
2018-12-19T06:44:29.355Z,1.87
2018-12-19T06:45:29.343Z,1.90
2018-12-19T06:46:29.332Z,1.86
2018-12-19T06:47:29.322Z,1.87
2018-12-19T06:48:29.327Z,1.84
2018-12-19T06:49:29.300Z,1.90
2018-12-19T06:50:29.287Z,1.93
2018-12-19T06:51:29.279Z,1.95
2018-12-19T06:52:29.265Z,1.95
2018-12-19T06:53:29.275Z,1.91
2018-12-19T06:54:29.243Z,2.00
2018-12-19T06:55:29.234Z,1.93
2018-12-19T06:56:29.219Z,2.02
2018-12-19T06:57:29.208Z,1.98
2018-12-19T06:58:29.222Z,2.03
2018-12-19T06:59:29.187Z,1.98
2018-12-19T07:00:29.177Z,2.02
2018-12-19T07:01:29.163Z,1.86
2018-12-19T07:02:29.152Z,2.00
2018-12-19T07:03:29.160Z,2.00
2018-12-19T07:04:29.131Z,1.99
2018-12-19T07:05:29.120Z,2.06
2018-12-19T07:06:29.106Z,2.06
2018-12-19T07:07:29.095Z,2.05
2018-12-19T07:08:29.100Z,2.07
2018-12-19T07:09:29.072Z,1.99
2018-12-19T07:10:29.060Z,2.02
2018-12-19T07:11:29.053Z,2.05
2018-12-19T07:12:29.038Z,2.06
2018-12-19T07:13:29.046Z,2.05
2018-12-19T07:14:29.015Z,1.98
2018-12-19T07:15:29.003Z,2.06
2018-12-19T07:16:28.994Z,2.06
2018-12-19T07:17:28.980Z,2.10
2018-12-19T07:18:28.989Z,2.03
2018-12-19T07:19:28.961Z,2.18
2018-12-19T07:20:28.950Z,2.09
2018-12-19T07:21:28.937Z,2.07
2018-12-19T07:22:28.925Z,2.12
2018-12-19T07:23:28.930Z,2.16
2018-12-19T07:24:28.902Z,2.17
2018-12-19T07:25:28.891Z,2.12
2018-12-19T07:26:28.895Z,2.14
2018-12-19T07:27:28.868Z,2.09
2018-12-19T07:28:28.873Z,2.16
2018-12-19T07:29:28.847Z,2.21
2018-12-19T07:30:28.840Z,2.12
2018-12-19T07:31:28.823Z,2.18
2018-12-19T07:32:28.810Z,2.17
2018-12-19T07:33:28.816Z,2.21
2018-12-19T07:34:28.794Z,2.24
2018-12-19T07:35:28.776Z,2.17
2018-12-19T07:36:28.766Z,2.23
2018-12-19T07:37:28.753Z,2.27
2018-12-19T07:38:28.764Z,2.23
2018-12-19T07:39:28.732Z,2.24
2018-12-19T07:40:28.725Z,2.34
2018-12-19T07:41:28.709Z,2.25
2018-12-19T07:42:28.697Z,2.28
2018-12-19T07:43:28.701Z,2.31
2018-12-19T07:44:28.675Z,2.28
2018-12-19T07:45:28.668Z,2.31
2018-12-19T07:46:28.655Z,2.25
2018-12-19T07:47:28.644Z,2.30
2018-12-19T07:48:28.649Z,2.31
2018-12-19T07:49:28.621Z,2.31
2018-12-19T07:50:28.606Z,2.43
2018-12-19T07:51:28.597Z,2.42
2018-12-19T07:52:28.585Z,2.45
2018-12-19T07:53:28.592Z,2.42
2018-12-19T07:54:28.562Z,2.38
2018-12-19T07:55:28.552Z,2.45
2018-12-19T07:56:28.539Z,2.42
2018-12-19T07:57:28.532Z,2.46
2018-12-19T07:58:28.552Z,2.49
2018-12-19T07:59:28.508Z,2.42
2018-12-19T08:00:28.506Z,2.52
2018-12-19T08:01:28.484Z,2.60
2018-12-19T08:02:28.472Z,2.57
2018-12-19T08:03:28.477Z,2.56
2018-12-19T08:04:28.448Z,2.48
2018-12-19T08:05:28.439Z,2.61
2018-12-19T08:06:28.425Z,2.59
2018-12-19T08:07:28.416Z,2.53
2018-12-19T08:08:28.421Z,2.54
2018-12-19T08:09:28.393Z,2.54
2018-12-19T08:10:28.379Z,2.61
2018-12-19T08:11:28.377Z,2.59
2018-12-19T08:12:28.360Z,2.60
2018-12-19T08:13:28.365Z,2.67
2018-12-19T08:14:28.337Z,2.60
2018-12-19T08:15:28.324Z,2.63
2018-12-19T08:16:28.322Z,2.71
2018-12-19T08:17:28.302Z,2.71
2018-12-19T08:18:28.307Z,2.64
2018-12-19T08:19:28.278Z,2.64
2018-12-19T08:20:28.271Z,2.69
2018-12-19T08:21:28.255Z,2.72
2018-12-19T08:22:28.246Z,2.66
2018-12-19T08:23:28.249Z,2.71
2018-12-19T08:24:28.220Z,2.64
2018-12-19T08:25:28.211Z,2.75
2018-12-19T08:26:28.199Z,2.77
2018-12-19T08:27:28.186Z,2.72
2018-12-19T08:28:28.192Z,2.79
2018-12-19T08:29:28.168Z,2.63
2018-12-19T08:30:28.159Z,2.66
2018-12-19T08:31:28.143Z,2.69
2018-12-19T08:32:28.130Z,2.75
2018-12-19T08:33:28.136Z,2.85
2018-12-19T08:34:28.108Z,2.79
2018-12-19T08:35:28.094Z,2.87
2018-12-19T08:36:28.083Z,2.90
2018-12-19T08:37:28.073Z,2.78
2018-12-19T08:38:28.589Z,2.81
2018-12-19T08:39:28.050Z,2.77
2018-12-19T08:40:28.046Z,2.79
2018-12-19T08:41:28.028Z,2.85
2018-12-19T08:42:28.031Z,2.82
2018-12-19T08:43:28.006Z,2.81
2018-12-19T08:44:27.994Z,2.81
2018-12-19T08:45:27.982Z,2.85
2018-12-19T08:46:27.971Z,2.82
2018-12-19T08:47:27.996Z,2.89
2018-12-19T08:48:27.949Z,2.89
2018-12-19T08:49:27.939Z,2.82
2018-12-19T08:50:27.926Z,3.00
2018-12-19T08:51:27.916Z,2.82
2018-12-19T08:52:27.924Z,2.95
2018-12-19T08:53:27.893Z,2.96
2018-12-19T08:54:27.881Z,2.95
2018-12-19T08:55:27.869Z,2.95
2018-12-19T08:56:27.859Z,2.96
2018-12-19T08:57:27.865Z,2.93
2018-12-19T08:58:27.836Z,3.02
2018-12-19T08:59:27.844Z,3.02
2018-12-19T09:00:27.812Z,3.00
2018-12-19T09:01:27.803Z,2.97
2018-12-19T09:02:27.809Z,3.03
2018-12-19T09:03:27.778Z,2.95
2018-12-19T09:04:27.769Z,3.06
2018-12-19T09:05:27.756Z,2.96
2018-12-19T09:06:27.744Z,3.05
2018-12-19T09:07:27.763Z,3.05
2018-12-19T09:08:27.721Z,3.00
2018-12-19T09:09:27.720Z,3.03
2018-12-19T09:10:27.700Z,3.00
2018-12-19T09:11:27.688Z,3.17
2018-12-19T09:12:27.693Z,3.13
2018-12-19T09:13:27.666Z,3.15
2018-12-19T09:14:27.653Z,3.20
2018-12-19T09:15:27.933Z,3.18
2018-12-19T09:16:27.631Z,3.20
2018-12-19T09:17:27.646Z,3.13
2018-12-19T09:18:27.609Z,3.17
2018-12-19T09:19:27.596Z,3.20
2018-12-19T09:20:27.584Z,3.26
2018-12-19T09:21:27.575Z,3.17
2018-12-19T09:22:27.580Z,3.29
2018-12-19T09:23:27.552Z,3.17
2018-12-19T09:24:27.540Z,3.20
2018-12-19T09:25:27.527Z,3.26
2018-12-19T09:26:27.517Z,3.23
2018-12-19T09:27:27.525Z,3.32
2018-12-19T09:28:27.498Z,3.21
2018-12-19T09:29:27.490Z,3.23
2018-12-19T09:30:27.472Z,3.35
2018-12-19T09:31:27.462Z,3.36
2018-12-19T09:32:27.468Z,3.36
2018-12-19T09:33:27.791Z,3.39
2018-12-19T09:34:27.426Z,3.36
2018-12-19T09:35:27.414Z,3.31
2018-12-19T09:36:27.405Z,3.40
2018-12-19T09:37:27.392Z,3.43
2018-12-19T09:38:27.383Z,3.39
2018-12-19T09:39:27.400Z,3.36
2018-12-19T09:40:27.367Z,3.39
2018-12-19T09:41:27.348Z,3.42
2018-12-19T09:42:27.342Z,3.35
2018-12-19T09:43:27.326Z,3.35
2018-12-19T09:44:27.315Z,3.39
2018-12-19T09:45:27.318Z,3.39
2018-12-19T09:46:27.290Z,3.40
2018-12-19T09:47:27.303Z,3.36
2018-12-19T09:48:27.272Z,3.39
2018-12-19T09:49:27.258Z,3.36
2018-12-19T09:50:27.244Z,3.42
2018-12-19T09:51:27.240Z,3.35
2018-12-19T09:52:27.244Z,3.42
2018-12-19T09:53:27.214Z,3.39
2018-12-19T09:54:27.206Z,3.48
2018-12-19T09:55:27.189Z,3.43
2018-12-19T09:56:27.179Z,3.50
2018-12-19T09:57:27.189Z,3.45
2018-12-19T09:58:27.210Z,3.45
2018-12-19T09:59:27.145Z,3.47
2018-12-19T10:00:27.141Z,3.54
2018-12-19T10:01:27.124Z,3.45
2018-12-19T10:02:27.126Z,3.47
2018-12-19T10:03:27.100Z,3.43
2018-12-19T10:04:27.087Z,3.47
2018-12-19T10:05:27.081Z,3.39
2018-12-19T10:06:27.067Z,3.50
2018-12-19T10:07:27.083Z,3.43
2018-12-19T10:08:27.045Z,3.43
2018-12-19T10:09:27.034Z,3.55
2018-12-19T10:10:27.019Z,3.55
2018-12-19T10:11:27.010Z,3.48
2018-12-19T10:12:26.999Z,3.50
2018-12-19T10:13:27.015Z,3.57
2018-12-19T10:14:26.976Z,3.54
2018-12-19T10:15:26.969Z,3.58
2018-12-19T10:16:26.954Z,3.60
2018-12-19T10:17:26.939Z,3.62
2018-12-19T10:18:26.930Z,3.57
2018-12-19T10:19:26.943Z,3.55
2018-12-19T10:20:26.912Z,3.57
2018-12-19T10:21:26.895Z,3.60
2018-12-19T10:22:26.902Z,3.62
2018-12-19T10:23:26.873Z,3.60
2018-12-19T10:24:26.862Z,3.57
2018-12-19T10:25:26.855Z,3.62
2018-12-19T10:26:26.838Z,3.62
2018-12-19T10:27:26.850Z,3.58
2018-12-19T10:28:26.816Z,3.60
2018-12-19T10:29:26.804Z,3.65
2018-12-19T10:30:26.794Z,3.61
2018-12-19T10:31:26.786Z,3.61
2018-12-19T10:32:26.789Z,3.61
2018-12-19T10:33:26.767Z,3.55
2018-12-19T10:34:26.752Z,3.66
2018-12-19T10:35:26.772Z,3.69
2018-12-19T10:36:26.725Z,3.69
2018-12-19T10:37:26.714Z,3.68
2018-12-19T10:38:26.712Z,3.73
2018-12-19T10:39:26.692Z,3.72
2018-12-19T10:40:26.682Z,3.72
2018-12-19T10:41:26.697Z,3.70
2018-12-19T10:42:26.658Z,3.73
2018-12-19T10:43:26.647Z,3.84
2018-12-19T10:44:26.634Z,3.87
2018-12-19T10:45:26.625Z,3.87
2018-12-19T10:46:26.614Z,3.88
2018-12-19T10:47:26.624Z,3.96
2018-12-19T10:48:26.590Z,3.86
2018-12-19T10:49:26.579Z,3.96
2018-12-19T10:50:26.566Z,3.98
2018-12-19T10:51:26.554Z,3.96
2018-12-19T10:52:26.569Z,3.97
2018-12-19T10:53:26.534Z,3.97
2018-12-19T10:54:26.520Z,3.98
2018-12-19T10:55:26.518Z,3.94
2018-12-19T10:56:26.507Z,3.96
2018-12-19T10:57:26.508Z,3.98
2018-12-19T10:58:26.478Z,3.94
2018-12-19T10:59:26.471Z,4.00
2018-12-19T11:00:26.458Z,3.98
2018-12-19T11:01:26.448Z,3.93
2018-12-19T11:02:27.397Z,4.00
2018-12-19T11:03:26.423Z,3.90
2018-12-19T11:04:26.414Z,4.00
2018-12-19T11:05:26.418Z,4.05
2018-12-19T11:06:26.419Z,4.05
2018-12-19T11:07:26.376Z,4.04
2018-12-19T11:08:26.364Z,4.16
2018-12-19T11:09:26.356Z,4.14
2018-12-19T11:10:26.361Z,4.11
2018-12-19T11:11:32.055Z,4.16
2018-12-19T11:12:27.315Z,4.15
2018-12-19T11:13:26.307Z,4.18
2018-12-19T11:14:26.296Z,4.20
2018-12-19T11:15:26.317Z,4.22
2018-12-19T11:16:26.277Z,4.30
2018-12-19T11:17:26.266Z,4.34
2018-12-19T11:18:26.259Z,4.26
2018-12-19T11:19:26.242Z,4.32
2018-12-19T11:20:26.233Z,4.32
2018-12-19T11:21:26.236Z,4.36
2018-12-19T11:22:26.205Z,4.36
2018-12-19T11:23:26.196Z,4.45
2018-12-19T11:24:26.186Z,4.48
2018-12-19T11:25:26.174Z,4.48
2018-12-19T11:26:26.168Z,4.47
2018-12-19T11:27:26.176Z,4.48
2018-12-19T11:28:26.187Z,4.62
2018-12-19T11:29:26.130Z,4.54
2018-12-19T11:30:26.119Z,4.58
2018-12-19T11:31:26.130Z,4.58
2018-12-19T11:32:26.097Z,4.62
2018-12-19T11:33:26.084Z,4.55
2018-12-19T11:34:26.074Z,4.55
2018-12-19T11:35:26.061Z,4.62
2018-12-19T11:36:26.069Z,4.63
2018-12-19T11:37:26.097Z,4.58
2018-12-19T11:38:26.029Z,4.55
2018-12-19T11:39:26.049Z,4.59
2018-12-19T11:40:26.005Z,4.58
2018-12-19T11:41:25.998Z,4.63
2018-12-19T11:42:25.983Z,4.59
2018-12-19T11:43:25.972Z,4.66
2018-12-19T11:44:25.959Z,4.69
2018-12-19T11:45:25.968Z,4.60
2018-12-19T11:46:25.938Z,4.70
2018-12-19T11:47:25.928Z,4.67
2018-12-19T11:48:25.925Z,4.65
2018-12-19T11:49:25.907Z,4.67
2018-12-19T11:50:25.912Z,4.67
2018-12-19T11:51:25.902Z,4.75
2018-12-19T11:52:25.871Z,4.70
2018-12-19T11:53:25.859Z,4.70
2018-12-19T11:54:25.937Z,4.84
2018-12-19T11:55:25.837Z,4.78
2018-12-19T11:56:25.845Z,4.70
2018-12-19T11:57:25.817Z,4.70
2018-12-19T11:58:25.813Z,4.82
2018-12-19T11:59:25.832Z,4.82
2018-12-19T12:00:25.780Z,4.77
2018-12-19T12:01:25.801Z,4.82
2018-12-19T12:02:25.759Z,4.77
2018-12-19T12:03:25.747Z,4.75
2018-12-19T12:04:25.736Z,4.73
2018-12-19T12:05:25.723Z,4.72
2018-12-19T12:06:25.731Z,4.73
2018-12-19T12:07:25.735Z,4.77
2018-12-19T12:08:25.704Z,4.69
2018-12-19T12:09:25.689Z,4.65
2018-12-19T12:10:25.671Z,4.73
2018-12-19T12:11:25.665Z,4.72
2018-12-19T12:12:25.648Z,4.72
2018-12-19T12:13:25.716Z,4.70
2018-12-19T12:14:25.628Z,4.70
2018-12-19T12:15:25.613Z,4.78
2018-12-19T12:16:25.606Z,4.70
2018-12-19T12:17:25.589Z,4.82
2018-12-19T12:18:25.581Z,4.77
2018-12-19T12:19:25.621Z,4.70
2018-12-19T12:20:25.556Z,4.70
2018-12-19T12:21:25.547Z,4.77
2018-12-19T12:22:25.533Z,4.72
2018-12-19T12:23:25.523Z,4.75
2018-12-19T12:24:25.515Z,4.75
2018-12-19T12:25:25.546Z,4.70
2018-12-19T12:26:25.509Z,4.72
2018-12-19T12:27:25.478Z,4.75
2018-12-19T12:28:25.484Z,4.69
2018-12-19T12:29:25.481Z,4.69
2018-12-19T12:30:25.471Z,4.66
2018-12-19T12:31:25.443Z,4.59
2018-12-19T12:32:25.428Z,4.69
2018-12-19T12:33:25.420Z,4.60
2018-12-19T12:34:25.417Z,4.54
2018-12-19T12:35:25.426Z,4.55
2018-12-19T12:36:25.407Z,4.63
2018-12-19T12:37:25.375Z,4.63
2018-12-19T12:38:25.362Z,4.62
2018-12-19T12:39:25.355Z,4.60
2018-12-19T12:40:25.343Z,4.65
2018-12-19T12:41:25.349Z,4.55
2018-12-19T12:42:25.319Z,4.45
2018-12-19T12:43:25.304Z,4.47
2018-12-19T12:44:25.305Z,4.54
2018-12-19T12:45:25.280Z,4.51
2018-12-19T12:46:25.309Z,4.50
2018-12-19T12:47:25.254Z,4.47
2018-12-19T12:48:25.242Z,4.48
2018-12-19T12:49:25.233Z,4.59
2018-12-19T12:50:25.220Z,4.62
2018-12-19T12:51:25.236Z,4.60
2018-12-19T12:52:25.201Z,4.59
2018-12-19T12:53:25.219Z,4.52
2018-12-19T12:54:25.176Z,4.51
2018-12-19T12:55:25.166Z,4.48
2018-12-19T12:56:25.165Z,4.48
2018-12-19T12:57:25.153Z,4.45
2018-12-19T12:58:25.128Z,4.45
2018-12-19T12:59:25.148Z,4.51
2018-12-19T13:00:25.108Z,4.44
2018-12-19T13:01:25.094Z,4.44
2018-12-19T13:02:25.085Z,4.48
2018-12-19T13:03:25.074Z,4.44
2018-12-19T13:04:25.063Z,4.37
2018-12-19T13:05:25.075Z,4.36
2018-12-19T13:06:25.062Z,4.34
2018-12-19T13:07:25.028Z,4.34
2018-12-19T13:08:25.025Z,4.42
2018-12-19T13:09:25.014Z,4.37
2018-12-19T13:10:24.996Z,4.37
2018-12-19T13:11:25.004Z,4.40
2018-12-19T13:12:24.972Z,4.40
2018-12-19T13:13:24.967Z,4.34
2018-12-19T13:14:24.951Z,4.33
2018-12-19T13:15:24.939Z,4.34
2018-12-19T13:16:24.950Z,4.32
2018-12-19T13:17:24.918Z,4.36
2018-12-19T13:18:24.911Z,4.29
2018-12-19T13:19:24.893Z,4.29
2018-12-19T13:20:24.881Z,4.20
2018-12-19T13:21:24.901Z,4.27
2018-12-19T13:22:24.862Z,4.20
2018-12-19T13:23:24.851Z,4.18
2018-12-19T13:24:24.845Z,4.12
2018-12-19T13:25:24.828Z,4.16
2018-12-19T13:26:24.816Z,4.18
2018-12-19T13:27:24.832Z,4.18
2018-12-19T13:28:24.792Z,4.16
2018-12-19T13:29:24.782Z,4.16
2018-12-19T13:30:24.772Z,4.22
2018-12-19T13:31:24.759Z,4.18
2018-12-19T13:32:24.749Z,4.15
2018-12-19T13:33:24.767Z,4.24
2018-12-19T13:34:24.726Z,4.22
2018-12-19T13:35:24.719Z,4.16
2018-12-19T13:36:24.703Z,4.26
2018-12-19T13:37:24.695Z,4.30
2018-12-19T13:38:24.682Z,4.29
2018-12-19T13:39:24.688Z,4.29
2018-12-19T13:40:24.666Z,4.26
2018-12-19T13:41:24.670Z,4.16
2018-12-19T13:42:24.637Z,4.20
2018-12-19T13:43:24.626Z,4.11
2018-12-19T13:44:24.624Z,4.15
2018-12-19T13:45:24.609Z,4.15
2018-12-19T13:46:24.609Z,4.18
2018-12-19T13:47:24.581Z,4.15
2018-12-19T13:48:24.568Z,4.20
2018-12-19T13:49:24.557Z,4.14
2018-12-19T13:50:24.985Z,4.15
2018-12-19T13:51:24.560Z,4.18
2018-12-19T13:52:24.525Z,4.12
2018-12-19T13:53:24.512Z,4.16
2018-12-19T13:54:24.502Z,4.20
2018-12-19T13:55:24.517Z,4.12
2018-12-19T13:56:24.480Z,4.12
2018-12-19T13:57:24.466Z,4.12
2018-12-19T13:58:24.455Z,4.16
2018-12-19T13:59:24.451Z,4.15
2018-12-19T14:00:24.436Z,4.11
2018-12-19T14:01:24.449Z,4.16
2018-12-19T14:02:24.411Z,4.15
2018-12-19T14:03:24.400Z,4.12
2018-12-19T14:04:24.387Z,4.15
2018-12-19T14:05:24.380Z,4.16
2018-12-19T14:06:24.366Z,4.14
2018-12-19T14:07:24.371Z,4.15
2018-12-19T14:08:24.346Z,4.15
2018-12-19T14:09:24.332Z,4.16
2018-12-19T14:10:24.340Z,4.04
2018-12-19T14:11:24.309Z,4.14
2018-12-19T14:12:24.298Z,4.06
2018-12-19T14:13:24.287Z,4.12
2018-12-19T14:14:24.283Z,4.14
2018-12-19T14:15:24.287Z,4.08
2018-12-19T14:16:24.314Z,4.11
2018-12-19T14:17:24.242Z,4.16
2018-12-19T14:18:24.232Z,4.15
2018-12-19T14:19:24.223Z,4.15
2018-12-19T14:20:24.224Z,4.16
2018-12-19T14:21:24.199Z,4.12
2018-12-19T14:22:24.185Z,4.18
2018-12-19T14:23:24.174Z,4.18
2018-12-19T14:24:24.164Z,4.16
2018-12-19T14:25:24.201Z,4.14
2018-12-19T14:26:24.144Z,4.20
2018-12-19T14:27:24.130Z,4.18
2018-12-19T14:28:24.129Z,4.20
2018-12-19T14:29:24.107Z,4.16